Time;durP1;ratioP1;P1;durP2;ratioP2;P2;SDS_P1;SDS_P2;PMS_P1;PMS_P2;Temp;Humidity;BMP_temperature;BMP_pressure;BME280_temperature;BME280_humidity;BME280_pressure;Samples;Min_cycle;Max_cycle;Signal;HPM_P1;HPM_P2
2023/04/15 00:01:28;;;;;;;;;;;;;;;;;;6100787;23;19921;-90
2023/04/15 00:03:56;;;;;;;;;;;;;;;;;;6099675;23;19921;-91
2023/04/15 00:06:23;;;;;;;;;;;;;;;;;;6100395;23;19928;-91
2023/04/15 00:08:50;;;;;;;;;;;;;;;;;;6100036;23;19925;-91
2023/04/15 00:11:19;;;;;;;;;;;;;;;;;;6099548;23;19928;-91
2023/04/15 00:13:46;;;;;;;;;;;;;;;;;;6074385;23;19921;-90
2023/04/15 00:16:13;;;;;;;;;;;;;;;;;;6099423;23;19932;-91
2023/04/15 00:18:40;;;;;;;;;;;;;;;;;;6126318;23;19928;-91
2023/04/15 00:21:07;;;;;;;;;;;;;;;;;;6099967;23;19921;-91
2023/04/15 00:23:35;;;;;;;;;;;;;;;;;;6125837;23;20290;-91
2023/04/15 00:26:02;;;;;;;;;;;;;;;;;;6124204;23;19932;-90
2023/04/15 00:28:31;;;;;;;;;;;;;;;;;;6125867;23;19920;-91
2023/04/15 00:30:58;;;;;;;;;;;;;;;;;;6075241;23;20257;-91
2023/04/15 00:33:25;;;;;;;;;;;;;;;;;;6099728;23;20337;-91
2023/04/15 00:35:52;;;;;;;;;;;;;;;;;;6125825;23;19937;-91
2023/04/15 00:38:19;;;;;;;;;;;;;;;;;;6110262;23;19928;-91
2023/04/15 00:40:46;;;;;;;;;;;;;;;;;;6099915;23;19928;-91
2023/04/15 00:43:13;;;;;;;;;;;;;;;;;;6099536;23;19932;-91
2023/04/15 00:45:42;;;;;;;;;;;;;;;;;;6110055;23;19928;-91
2023/04/15 00:48:10;;;;;;;;;;;;;;;;;;6109475;23;19944;-91
2023/04/15 00:50:37;;;;;;;;;;;;;;;;;;6103075;23;19921;-91
2023/04/15 00:53:04;;;;;;;;;;;;;;;;;;6099036;23;19925;-91
2023/04/15 00:55:32;;;;;;;;;;;;;;;;;;6154729;23;20260;-91
2023/04/15 00:57:59;;;;;;;;;;;;;;;;;;6129144;23;19928;-91
2023/04/15 01:00:26;;;;;;;;;;;;;;;;;;6129400;23;19920;-91
2023/04/15 01:02:54;;;;;;;;;;;;;;;;;;6154862;23;19920;-91
2023/04/15 01:05:21;;;;;;;;;;;;;;;;;;6127915;23;19927;-91
2023/04/15 01:07:48;;;;;;;;;;;;;;;;;;6104245;23;19920;-91
2023/04/15 01:10:15;;;;;;;;;;;;;;;;;;6159685;23;19927;-91
2023/04/15 01:12:43;;;;;;;;;;;;;;;;;;6128143;23;20242;-90
2023/04/15 01:15:10;;;;;;;;;;;;;;;;;;6103224;23;20249;-90
2023/04/15 01:17:38;;;;;;;;;;;;;;;;;;6155176;23;19928;-90
2023/04/15 01:20:10;;;;;;;;;;;;;;;;;;6104519;23;20356;-91
2023/04/15 01:22:38;;;;;;;;;;;;;;;;;;6139141;23;19920;-90
2023/04/15 01:25:10;;;;;;;;;;;;;;;;;;6127414;23;19931;-91
2023/04/15 01:27:39;;;;;;;;;;;;;;;;;;6129104;23;20257;-90
2023/04/15 01:30:07;;;;;;;;;;;;;;;;;;6133986;23;20260;-91
2023/04/15 01:32:34;;;;;;;;;;;;;;;;;;6138354;23;19936;-91
2023/04/15 01:35:20;;;;;;;;;;;;;;;;;;6142957;23;19927;-91
2023/04/15 01:37:48;;;;;;;;;;;;;;;;;;6162783;23;19920;-91
2023/04/15 01:40:17;;;;;;;;;;;;;;;;;;6138856;23;20238;-91
2023/04/15 01:42:47;;;;;;;;;;;;;;;;;;6127401;23;19921;-91
2023/04/15 01:45:17;;;;;;;;;;;;;;;;;;6128436;23;19928;-91
2023/04/15 01:47:45;;;;;;;;;;;;;;;;;;6127067;23;19927;-91
2023/04/15 01:50:14;;;;;;;;;;;;;;;;;;6127804;23;19924;-91
2023/04/15 01:52:42;;;;;;;;;;;;;;;;;;6153494;23;20226;-91
2023/04/15 01:55:11;;;;;;;;;;;;;;;;;;6127743;23;20401;-92
2023/04/15 01:57:40;;;;;;;;;;;;;;;;;;6152047;23;20345;-92
2023/04/15 02:00:11;;;;;;;;;;;;;;;;;;6152472;23;19925;-92
2023/04/15 02:02:42;;;;;;;;;;;;;;;;;;6155833;23;19928;-92
2023/04/15 02:05:10;;;;;;;;;;;;;;;;;;6178736;23;19920;-92
2023/04/15 02:07:39;;;;;;;;;;;;;;;;;;6152736;23;19905;-92
2023/04/15 02:10:08;;;;;;;;;;;;;;;;;;6177906;23;19917;-92
2023/04/15 02:12:39;;;;;;;;;;;;;;;;;;6153123;23;19911;-93
2023/04/15 02:15:09;;;;;;;;;;;;;;;;;;6177462;23;19904;-92
2023/04/15 02:17:38;;;;;;;;;;;;;;;;;;6150376;23;19920;-92
2023/04/15 02:20:09;;;;;;;;;;;;;;;;;;6178786;23;19915;-92
2023/04/15 02:22:37;;;;;;;;;;;;;;;;;;6167909;23;20256;-92
2023/04/15 02:25:07;;;;;;;;;;;;;;;;;;6138079;23;20333;-92
2023/04/15 02:27:35;;;;;;;;;;;;;;;;;;6129361;23;20374;-92
2023/04/15 02:30:31;;;;;;;;;;;;;;;;;;6154323;23;20298;-93
2023/04/15 02:33:06;;;;;;;;;;;;;;;;;;6152663;23;19920;-92
2023/04/15 02:35:37;;;;;;;;;;;;;;;;;;6152925;23;19928;-92
2023/04/15 02:38:07;;;;;;;;;;;;;;;;;;6128888;23;20268;-92
2023/04/15 02:40:35;;;;;;;;;;;;;;;;;;6128103;23;20513;-91
2023/04/15 02:43:05;;;;;;;;;;;;;;;;;;6130295;23;19921;-92
2023/04/15 02:45:35;;;;;;;;;;;;;;;;;;6154492;23;19921;-92
2023/04/15 02:48:07;;;;;;;;;;;;;;;;;;6154017;23;19928;-92
2023/04/15 02:50:40;;;;;;;;;;;;;;;;;;6154243;23;19928;-92
2023/04/15 02:53:12;;;;;;;;;;;;;;;;;;6129771;23;19921;-92
2023/04/15 02:55:43;;;;;;;;;;;;;;;;;;6130662;23;19928;-92
2023/04/15 02:58:11;;;;;;;;;;;;;;;;;;6128577;23;19921;-92
2023/04/15 03:00:39;;;;;;;;;;;;;;;;;;6129560;23;19928;-92
2023/04/15 03:03:09;;;;;;;;;;;;;;;;;;6128558;23;19925;-92
2023/04/15 03:05:38;;;;;;;;;;;;;;;;;;6130302;23;19920;-92
2023/04/15 03:08:07;;;;;;;;;;;;;;;;;;6155287;23;19931;-92
2023/04/15 03:10:35;;;;;;;;;;;;;;;;;;6129824;23;19921;-93
2023/04/15 03:13:04;;;;;;;;;;;;;;;;;;6154603;23;19920;-93
2023/04/15 03:15:32;;;;;;;;;;;;;;;;;;6153921;23;19928;-92
2023/04/15 03:18:02;;;;;;;;;;;;;;;;;;6129752;23;19928;-93
2023/04/15 03:20:32;;;;;;;;;;;;;;;;;;6129292;23;19927;-93
2023/04/15 03:23:02;;;;;;;;;;;;;;;;;;6153178;23;20253;-93
2023/04/15 03:25:32;;;;;;;;;;;;;;;;;;6130436;23;19921;-91
2023/04/15 03:28:02;;;;;;;;;;;;;;;;;;6153108;23;19928;-93
2023/04/15 03:30:30;;;;;;;;;;;;;;;;;;6130093;23;19920;-92
2023/04/15 03:32:59;;;;;;;;;;;;;;;;;;6127333;23;19928;-92
2023/04/15 03:35:27;;;;;;;;;;;;;;;;;;6128770;23;19932;-92
2023/04/15 03:38:00;;;;;;;;;;;;;;;;;;6128284;23;19927;-93
2023/04/15 03:40:28;;;;;;;;;;;;;;;;;;6154482;23;19924;-92
2023/04/15 03:42:59;;;;;;;;;;;;;;;;;;6128707;23;19921;-92
2023/04/15 03:45:27;;;;;;;;;;;;;;;;;;6128592;23;19966;-91
2023/04/15 03:47:56;;;;;;;;;;;;;;;;;;6129142;23;19920;-92
2023/04/15 03:50:24;;;;;;;;;;;;;;;;;;6154570;23;19943;-92
2023/04/15 03:52:53;;;;;;;;;;;;;;;;;;6154449;23;19928;-92
2023/04/15 03:55:23;;;;;;;;;;;;;;;;;;6153278;23;20401;-92
2023/04/15 03:57:51;;;;;;;;;;;;;;;;;;6154282;23;19920;-91
2023/04/15 04:00:20;;;;;;;;;;;;;;;;;;6153031;23;19924;-92
2023/04/15 04:02:48;;;;;;;;;;;;;;;;;;6129935;23;19928;-92
2023/04/15 04:05:18;;;;;;;;;;;;;;;;;;6154801;23;19927;-92
2023/04/15 04:07:47;;;;;;;;;;;;;;;;;;6131311;23;19921;-92
2023/04/15 04:10:15;;;;;;;;;;;;;;;;;;6129936;23;19921;-92
2023/04/15 04:12:45;;;;;;;;;;;;;;;;;;6131508;23;19943;-92
2023/04/15 04:15:17;;;;;;;;;;;;;;;;;;6130526;23;19943;-92
2023/04/15 04:17:45;;;;;;;;;;;;;;;;;;6155049;23;20226;-92
2023/04/15 04:20:14;;;;;;;;;;;;;;;;;;6153559;23;19925;-92
2023/04/15 04:22:42;;;;;;;;;;;;;;;;;;6128509;23;19927;-89
2023/04/15 04:25:11;;;;;;;;;;;;;;;;;;6154442;23;19932;-92
2023/04/15 04:27:41;;;;;;;;;;;;;;;;;;6128732;23;19928;-93
2023/04/15 04:30:16;;;;;;;;;;;;;;;;;;6153368;23;19921;-92
2023/04/15 04:32:44;;;;;;;;;;;;;;;;;;6128102;23;19929;-93
2023/04/15 04:35:13;;;;;;;;;;;;;;;;;;6126370;23;19943;-90
2023/04/15 04:37:41;;;;;;;;;;;;;;;;;;6151250;23;19925;-91
2023/04/15 04:40:10;;;;;;;;;;;;;;;;;;6126884;23;19927;-91
2023/04/15 04:42:39;;;;;;;;;;;;;;;;;;6128620;23;19931;-91
2023/04/15 04:45:09;;;;;;;;;;;;;;;;;;6128202;23;19921;-91
2023/04/15 04:47:38;;;;;;;;;;;;;;;;;;6153761;23;19921;-91
2023/04/15 04:50:08;;;;;;;;;;;;;;;;;;6127487;23;19920;-90
2023/04/15 04:52:36;;;;;;;;;;;;;;;;;;6153504;23;19920;-91
2023/04/15 04:55:05;;;;;;;;;;;;;;;;;;6154176;23;19925;-92
2023/04/15 04:57:34;;;;;;;;;;;;;;;;;;6128572;23;19928;-92
2023/04/15 05:00:03;;;;;;;;;;;;;;;;;;6128653;23;19920;-93
2023/04/15 05:02:52;;;;;;;;;;;;;;;;;;6129375;23;19921;-93
2023/04/15 05:05:26;;;;;;;;;;;;;;;;;;6126940;23;19921;-91
2023/04/15 05:08:10;;;;;;;;;;;;;;;;;;6159566;23;20363;-91
2023/04/15 05:10:42;;;;;;;;;;;;;;;;;;6158680;23;19927;-93
2023/04/15 05:13:15;;;;;;;;;;;;;;;;;;6158641;23;20372;-93
2023/04/15 05:16:05;;;;;;;;;;;;;;;;;;6137343;23;19924;-93
2023/04/15 05:18:59;;;;;;;;;;;;;;;;;;6138826;23;19972;-92
2023/04/15 05:21:33;;;;;;;;;;;;;;;;;;6135113;23;19921;-91
2023/04/15 05:24:01;;;;;;;;;;;;;;;;;;6137438;23;20391;-91
2023/04/15 05:26:32;;;;;;;;;;;;;;;;;;6131415;23;19928;-92
2023/04/15 05:29:00;;;;;;;;;;;;;;;;;;6134542;23;19943;-92
2023/04/15 05:31:29;;;;;;;;;;;;;;;;;;6129939;23;19927;-92
2023/04/15 05:33:57;;;;;;;;;;;;;;;;;;6129388;23;20324;-92
2023/04/15 05:36:28;;;;;;;;;;;;;;;;;;6151721;23;19928;-93
2023/04/15 05:39:01;;;;;;;;;;;;;;;;;;6129583;23;19921;-93
2023/04/15 05:41:30;;;;;;;;;;;;;;;;;;6152103;23;20252;-92
2023/04/15 05:43:59;;;;;;;;;;;;;;;;;;6154208;23;20244;-93
2023/04/15 05:50:21;;;;;;;;;;;;;;;;;;6170228;22;19927;-89
2023/04/15 05:52:52;;;;;;;;;;;;;;;;;;6190674;23;19920;-88
2023/04/15 05:55:25;;;;;;;;;;;;;;;;;;6218620;23;19920;-88
2023/04/15 05:57:56;;;;;;;;;;;;;;;;;;6190223;23;19920;-89
2023/04/15 06:00:26;;;;;;;;;;;;;;;;;;6191704;23;19920;-90
2023/04/15 06:03:01;;;;;;;;;;;;;;;;;;6193095;23;19927;-91
2023/04/15 06:05:35;;;;;;;;;;;;;;;;;;6195103;23;19926;-92
2023/04/15 06:08:07;;;;;;;;;;;;;;;;;;6199635;23;19920;-91
2023/04/15 06:10:38;;;;;;;;;;;;;;;;;;6195973;23;20259;-92
2023/04/15 06:13:09;;;;;;;;;;;;;;;;;;6194330;23;19936;-91
2023/04/15 06:15:40;;;;;;;;;;;;;;;;;;6194250;23;20247;-92
2023/04/15 06:18:08;;;;;;;;;;;;;;;;;;6195434;23;19920;-90
2023/04/15 06:20:40;;;;;;;;;;;;;;;;;;6194671;23;20353;-93
2023/04/15 06:23:09;;;;;;;;;;;;;;;;;;6199582;23;20353;-94
2023/04/15 06:25:38;;;;;;;;;;;;;;;;;;6221694;23;19920;-94
2023/04/15 06:28:08;;;;;;;;;;;;;;;;;;6221231;23;19926;-93
2023/04/15 06:30:37;;;;;;;;;;;;;;;;;;6195084;23;20278;-92
2023/04/15 06:33:09;;;;;;;;;;;;;;;;;;6222058;23;19926;-93
2023/04/15 06:35:40;;;;;;;;;;;;;;;;;;6196672;23;19920;-95
2023/04/15 06:38:09;;;;;;;;;;;;;;;;;;6193594;23;19920;-93
2023/04/15 06:40:41;;;;;;;;;;;;;;;;;;6193182;23;19927;-92
2023/04/15 06:43:12;;;;;;;;;;;;;;;;;;6196031;23;19920;-93
2023/04/15 06:45:43;;;;;;;;;;;;;;;;;;6194485;23;19927;-92
2023/04/15 06:48:12;;;;;;;;;;;;;;;;;;6193491;23;19920;-91
2023/04/15 06:50:42;;;;;;;;;;;;;;;;;;6219049;23;19920;-92
2023/04/15 06:53:10;;;;;;;;;;;;;;;;;;6192633;23;19920;-93
2023/04/15 06:55:40;;;;;;;;;;;;;;;;;;6194145;23;19920;-92
2023/04/15 06:58:11;;;;;;;;;;;;;;;;;;6194957;23;19926;-93
2023/04/15 07:00:40;;;;;;;;;;;;;;;;;;6193104;23;19924;-92
2023/04/15 07:03:09;;;;;;;;;;;;;;;;;;6193961;23;19920;-92
2023/04/15 07:05:40;;;;;;;;;;;;;;;;;;6193238;23;19920;-93
2023/04/15 07:08:09;;;;;;;;;;;;;;;;;;6192318;23;19920;-92
2023/04/15 07:10:38;;;;;;;;;;;;;;;;;;6194089;23;19920;-92
2023/04/15 07:13:10;;;;;;;;;;;;;;;;;;6194853;23;19920;-92
2023/04/15 07:15:44;;;;;;;;;;;;;;;;;;6192619;23;19926;-94
2023/04/15 07:18:13;;;;;;;;;;;;;;;;;;6193708;23;19927;-93
2023/04/15 07:20:41;;;;;;;;;;;;;;;;;;6194996;23;19920;-91
2023/04/15 07:23:10;;;;;;;;;;;;;;;;;;6233202;23;19926;-92
2023/04/15 07:25:39;;;;;;;;;;;;;;;;;;6205775;23;19920;-92
2023/04/15 07:28:12;;;;;;;;;;;;;;;;;;6203527;23;19927;-91
2023/04/15 07:30:41;;;;;;;;;;;;;;;;;;6201526;23;19927;-92
2023/04/15 07:33:12;;;;;;;;;;;;;;;;;;6222334;23;19919;-92
2023/04/15 07:35:40;;;;;;;;;;;;;;;;;;6190513;23;19927;-90
2023/04/15 07:38:09;;;;;;;;;;;;;;;;;;6189090;23;20260;-90
2023/04/15 07:40:41;;;;;;;;;;;;;;;;;;6191019;23;19923;-90
2023/04/15 07:43:09;;;;;;;;;;;;;;;;;;6190949;23;19931;-91
2023/04/15 07:45:42;;;;;;;;;;;;;;;;;;6189533;23;19927;-91
2023/04/15 07:48:10;;;;;;;;;;;;;;;;;;6216846;23;20267;-91
2023/04/15 07:50:42;;;;;;;;;;;;;;;;;;6191557;23;19927;-91
2023/04/15 07:53:10;;;;;;;;;;;;;;;;;;6190593;23;19927;-91
2023/04/15 07:55:39;;;;;;;;;;;;;;;;;;6188798;23;19924;-91
2023/04/15 07:58:08;;;;;;;;;;;;;;;;;;6189990;23;19920;-91
2023/04/15 08:00:37;;;;;;;;;;;;;;;;;;6215607;23;19944;-90
2023/04/15 08:03:07;;;;;;;;;;;;;;;;;;6189816;23;19931;-92
2023/04/15 08:05:42;;;;;;;;;;;;;;;;;;6189155;23;19920;-90
2023/04/15 08:08:11;;;;;;;;;;;;;;;;;;6190174;23;19920;-92
2023/04/15 08:10:43;;;;;;;;;;;;;;;;;;6217229;23;19920;-92
2023/04/15 08:13:12;;;;;;;;;;;;;;;;;;6190374;23;19927;-92
2023/04/15 08:15:52;;;;;;;;;;;;;;;;;;6207181;23;20248;-93
2023/04/15 08:18:28;;;;;;;;;;;;;;;;;;6215649;23;19920;-92
2023/04/15 08:20:58;;;;;;;;;;;;;;;;;;6215700;23;19920;-92
2023/04/15 08:23:27;;;;;;;;;;;;;;;;;;6214264;23;19920;-90
2023/04/15 08:25:56;;;;;;;;;;;;;;;;;;6215609;23;19935;-92
2023/04/15 08:28:27;;;;;;;;;;;;;;;;;;6215995;23;19924;-93
2023/04/15 08:30:55;;;;;;;;;;;;;;;;;;6216133;23;19946;-91
2023/04/15 08:33:26;;;;;;;;;;;;;;;;;;6217130;23;19920;-91
2023/04/15 08:35:54;;;;;;;;;;;;;;;;;;6220880;23;19920;-92
2023/04/15 08:38:23;;;;;;;;;;;;;;;;;;6219258;23;19930;-92
2023/04/15 08:40:51;;;;;;;;;;;;;;;;;;6222623;23;19920;-93
2023/04/15 08:43:25;;;;;;;;;;;;;;;;;;6222870;23;19920;-93
2023/04/15 08:46:02;;;;;;;;;;;;;;;;;;6215226;23;19927;-91
2023/04/15 08:48:32;;;;;;;;;;;;;;;;;;6218307;23;19920;-91
2023/04/15 08:51:03;;;;;;;;;;;;;;;;;;6216656;23;19931;-92
2023/04/15 08:53:32;;;;;;;;;;;;;;;;;;6192262;23;19920;-90
2023/04/15 08:56:02;;;;;;;;;;;;;;;;;;6216107;23;19924;-92
2023/04/15 08:58:35;;;;;;;;;;;;;;;;;;6215061;23;19920;-91
2023/04/15 09:01:04;;;;;;;;;;;;;;;;;;6215653;23;19920;-91
2023/04/15 09:03:34;;;;;;;;;;;;;;;;;;6215423;23;20374;-94
2023/04/15 09:06:07;;;;;;;;;;;;;;;;;;6216842;23;19924;-93
2023/04/15 09:08:40;;;;;;;;;;;;;;;;;;6216596;23;19938;-94
2023/04/15 09:11:09;;;;;;;;;;;;;;;;;;6217861;23;20367;-92
2023/04/15 09:13:41;;;;;;;;;;;;;;;;;;6217557;23;19920;-90
2023/04/15 09:16:10;;;;;;;;;;;;;;;;;;6217074;23;19920;-93
2023/04/15 09:18:40;;;;;;;;;;;;;;;;;;6215541;23;19920;-93
2023/04/15 09:21:10;;;;;;;;;;;;;;;;;;6216668;23;19927;-93
2023/04/15 09:23:42;;;;;;;;;;;;;;;;;;6215321;23;19926;-92
2023/04/15 09:26:13;;;;;;;;;;;;;;;;;;6215659;23;19919;-92
2023/04/15 09:28:43;;;;;;;;;;;;;;;;;;6214750;23;19927;-92
2023/04/15 09:31:17;;;;;;;;;;;;;;;;;;6215559;23;20442;-91
2023/04/15 09:33:56;;;;;;;;;;;;;;;;;;6219318;23;19920;-93
2023/04/15 09:36:28;;;;;;;;;;;;;;;;;;6225868;23;19924;-91
2023/04/15 09:39:02;;;;;;;;;;;;;;;;;;6221179;23;20356;-89
2023/04/15 09:41:34;;;;;;;;;;;;;;;;;;6220186;23;19920;-92
2023/04/15 09:44:04;;;;;;;;;;;;;;;;;;6219497;23;19919;-91
2023/04/15 09:46:43;;;;;;;;;;;;;;;;;;6213922;23;19927;-92
2023/04/15 09:49:18;;;;;;;;;;;;;;;;;;6215134;23;19920;-91
2023/04/15 09:51:48;;;;;;;;;;;;;;;;;;6187632;23;19927;-91
2023/04/15 09:54:21;;;;;;;;;;;;;;;;;;6214811;23;19931;-92
2023/04/15 09:56:53;;;;;;;;;;;;;;;;;;6215068;23;19927;-93
2023/04/15 09:59:22;;;;;;;;;;;;;;;;;;6218575;23;19927;-94
2023/04/15 10:01:51;;;;;;;;;;;;;;;;;;6217310;23;19931;-93
2023/04/15 10:04:25;;;;;;;;;;;;;;;;;;6194919;23;19931;-93
2023/04/15 10:06:54;;;;;;;;;;;;;;;;;;6217955;23;19920;-92
2023/04/15 10:09:22;;;;;;;;;;;;;;;;;;6217435;23;19924;-94
2023/04/15 10:11:51;;;;;;;;;;;;;;;;;;6217853;23;19942;-92
2023/04/15 10:14:21;;;;;;;;;;;;;;;;;;6216055;23;19927;-93
2023/04/15 10:16:50;;;;;;;;;;;;;;;;;;6216875;23;19927;-91
2023/04/15 10:19:20;;;;;;;;;;;;;;;;;;6217830;23;19931;-91
2023/04/15 10:21:54;;;;;;;;;;;;;;;;;;6217772;23;19928;-91
2023/04/15 10:24:25;;;;;;;;;;;;;;;;;;6216191;23;19920;-93
2023/04/15 10:26:54;;;;;;;;;;;;;;;;;;6216127;23;19920;-92
2023/04/15 10:29:24;;;;;;;;;;;;;;;;;;6216957;23;19920;-95
2023/04/15 10:31:54;;;;;;;;;;;;;;;;;;6218425;23;19924;-93
2023/04/15 10:34:23;;;;;;;;;;;;;;;;;;6217660;23;19930;-92
2023/04/15 10:36:55;;;;;;;;;;;;;;;;;;6215241;23;20360;-92
2023/04/15 10:39:39;;;;;;;;;;;;;;;;;;6217996;23;19971;-93
2023/04/15 10:42:09;;;;;;;;;;;;;;;;;;6217092;23;20358;-94
2023/04/15 10:44:38;;;;;;;;;;;;;;;;;;6215813;23;20260;-93
2023/04/15 10:47:09;;;;;;;;;;;;;;;;;;6217062;23;19920;-92
2023/04/15 10:49:43;;;;;;;;;;;;;;;;;;6221614;23;19930;-93
2023/04/15 10:52:16;;;;;;;;;;;;;;;;;;6230952;23;19932;-94
2023/04/15 10:54:46;;;;;;;;;;;;;;;;;;6221586;23;20354;-94
2023/04/15 10:57:22;;;;;;;;;;;;;;;;;;6220111;23;19920;-93
2023/04/15 11:00:03;;;;;;;;;;;;;;;;;;6221898;23;19928;-93
2023/04/15 11:02:38;;;;;;;;;;;;;;;;;;6219950;23;19920;-94
2023/04/15 11:08:07;;;;;;;;;;;;;;;;;;6214918;23;19923;-94
2023/04/15 11:10:52;;;;;;;;;;;;;;;;;;6225377;23;20335;-95
2023/04/15 11:13:22;;;;;;;;;;;;;;;;;;6220203;23;19923;-94
2023/04/15 11:15:59;;;;;;;;;;;;;;;;;;6222052;23;20266;-93
2023/04/15 11:18:29;;;;;;;;;;;;;;;;;;6223177;23;19920;-94
2023/04/15 11:21:01;;;;;;;;;;;;;;;;;;6223970;23;19964;-95
2023/04/15 11:23:40;;;;;;;;;;;;;;;;;;6223978;23;19920;-93
2023/04/15 11:26:10;;;;;;;;;;;;;;;;;;6196443;23;20255;-92
2023/04/15 11:28:40;;;;;;;;;;;;;;;;;;6223579;23;20270;-94
2023/04/15 11:31:10;;;;;;;;;;;;;;;;;;6225411;23;19926;-93
2023/04/15 11:33:46;;;;;;;;;;;;;;;;;;6226360;23;19926;-95
2023/04/15 11:36:16;;;;;;;;;;;;;;;;;;6223195;23;19920;-93
2023/04/15 11:38:48;;;;;;;;;;;;;;;;;;6229457;23;19920;-93
2023/04/15 11:41:20;;;;;;;;;;;;;;;;;;6230237;23;19926;-92
2023/04/15 11:43:48;;;;;;;;;;;;;;;;;;6228717;23;19934;-93
2023/04/15 11:46:17;;;;;;;;;;;;;;;;;;6228688;23;19924;-94
2023/04/15 11:48:46;;;;;;;;;;;;;;;;;;6222136;23;19920;-92
2023/04/15 11:59:44;;;;;;;;;;;;;;;;;;6219384;23;19920;-91
2023/04/15 12:02:13;;;;;;;;;;;;;;;;;;6190104;23;19968;-92
2023/04/15 12:04:40;;;;;;;;;;;;;;;;;;6216199;23;19920;-91
2023/04/15 12:07:07;;;;;;;;;;;;;;;;;;6187779;23;19931;-91
2023/04/15 12:09:38;;;;;;;;;;;;;;;;;;6216207;23;19927;-91
2023/04/15 12:12:07;;;;;;;;;;;;;;;;;;6215576;23;19924;-92
2023/04/15 12:14:42;;;;;;;;;;;;;;;;;;6215107;23;19927;-93
2023/04/15 12:17:34;;;;;;;;;;;;;;;;;;6196933;23;19923;-92
2023/04/15 12:20:03;;;;;;;;;;;;;;;;;;6178662;23;19968;-91
2023/04/15 12:25:55;;;;;;;;;;;;;;;;;;6161035;23;19931;-92
2023/04/15 12:28:32;;;;;;;;;;;;;;;;;;6198520;23;19919;-91
2023/04/15 12:31:23;;;;;;;;;;;;;;;;;;6188625;23;20260;-91
2023/04/15 12:33:50;;;;;;;;;;;;;;;;;;6188551;23;20336;-85
2023/04/15 12:36:20;;;;;;;;;;;;;;;;;;6188828;23;19920;-91
2023/04/15 12:38:50;;;;;;;;;;;;;;;;;;6197400;23;19920;-90
2023/04/15 12:41:17;;;;;;;;;;;;;;;;;;6188236;23;19923;-90
2023/04/15 12:43:44;;;;;;;;;;;;;;;;;;6164028;23;20255;-91
2023/04/15 12:46:11;;;;;;;;;;;;;;;;;;6163277;23;20259;-91
2023/04/15 12:48:38;;;;;;;;;;;;;;;;;;6214444;23;20260;-90
2023/04/15 12:51:05;;;;;;;;;;;;;;;;;;6214342;23;19924;-91
2023/04/15 12:53:33;;;;;;;;;;;;;;;;;;6214832;23;19924;-91
2023/04/15 12:56:00;;;;;;;;;;;;;;;;;;6163335;23;19924;-91
2023/04/15 12:58:27;;;;;;;;;;;;;;;;;;6219593;23;19920;-91
2023/04/15 13:00:56;;;;;;;;;;;;;;;;;;6214633;23;19920;-92
2023/04/15 13:03:23;;;;;;;;;;;;;;;;;;6163414;23;19982;-91
2023/04/15 13:05:50;;;;;;;;;;;;;;;;;;6198283;23;19935;-91
2023/04/15 13:08:20;;;;;;;;;;;;;;;;;;6189300;23;20255;-92
2023/04/15 13:10:50;;;;;;;;;;;;;;;;;;6188489;23;19920;-92
2023/04/15 13:13:17;;;;;;;;;;;;;;;;;;6214325;23;19919;-91
2023/04/15 13:15:45;;;;;;;;;;;;;;;;;;6214754;23;20382;-91
2023/04/15 13:18:12;;;;;;;;;;;;;;;;;;6163021;23;20363;-91
2023/04/15 13:20:39;;;;;;;;;;;;;;;;;;6188874;23;20233;-90
2023/04/15 13:23:06;;;;;;;;;;;;;;;;;;6214162;23;20336;-89
2023/04/15 13:25:33;;;;;;;;;;;;;;;;;;6187190;23;19927;-90
2023/04/15 13:28:02;;;;;;;;;;;;;;;;;;6215061;23;19923;-90
2023/04/15 13:30:30;;;;;;;;;;;;;;;;;;6216079;23;19927;-90
2023/04/15 13:32:57;;;;;;;;;;;;;;;;;;6215935;23;20332;-89
2023/04/15 13:35:24;;;;;;;;;;;;;;;;;;6214866;23;19943;-90
2023/04/15 13:37:53;;;;;;;;;;;;;;;;;;6205595;23;19926;-89
2023/04/15 13:40:20;;;;;;;;;;;;;;;;;;6196010;23;19920;-89
2023/04/15 13:42:50;;;;;;;;;;;;;;;;;;6188070;23;19924;-90
2023/04/15 13:45:19;;;;;;;;;;;;;;;;;;6187880;23;20362;-90
2023/04/15 13:47:49;;;;;;;;;;;;;;;;;;6186664;23;20340;-87
2023/04/15 14:57:54;;;;;;;;;;;;;;;;;;6213160;23;20259;-90
2023/04/15 15:00:21;;;;;;;;;;;;;;;;;;6163863;23;19920;-90
2023/04/15 15:02:48;;;;;;;;;;;;;;;;;;6163929;23;19927;-89
2023/04/15 15:05:15;;;;;;;;;;;;;;;;;;6163184;23;19923;-90
2023/04/15 15:07:42;;;;;;;;;;;;;;;;;;6217093;23;19920;-90
2023/04/15 15:10:09;;;;;;;;;;;;;;;;;;6216454;23;19920;-89
2023/04/15 15:12:36;;;;;;;;;;;;;;;;;;6214641;23;19927;-90
2023/04/15 15:15:05;;;;;;;;;;;;;;;;;;6162886;23;20260;-91
2023/04/15 15:17:32;;;;;;;;;;;;;;;;;;6215335;23;19927;-91
2023/04/15 15:19:59;;;;;;;;;;;;;;;;;;6188418;23;19927;-88
2023/04/15 18:14:19;;;;;;;;;;;;;;;;;;6218180;22;19919;-92
2023/04/15 18:17:07;;;;;;;;;;;;;;;;;;6180910;23;19920;-91
2023/04/15 18:19:55;;;;;;;;;;;;;;;;;;6174969;23;19920;-92
2023/04/15 18:22:22;;;;;;;;;;;;;;;;;;6172704;23;19926;-89
2023/04/15 18:24:49;;;;;;;;;;;;;;;;;;6167364;23;19920;-90
2023/04/15 18:27:16;;;;;;;;;;;;;;;;;;6193414;23;19931;-88
2023/04/15 18:29:47;;;;;;;;;;;;;;;;;;6215845;23;19919;-88
2023/04/15 18:32:15;;;;;;;;;;;;;;;;;;6173378;23;20236;-89
2023/04/15 18:34:42;;;;;;;;;;;;;;;;;;6196863;23;19967;-86
2023/04/15 18:37:12;;;;;;;;;;;;;;;;;;6198771;23;20259;-89
2023/04/15 18:39:43;;;;;;;;;;;;;;;;;;6223012;23;19926;-87
2023/04/15 18:42:11;;;;;;;;;;;;;;;;;;6233445;23;20235;-89
2023/04/15 18:44:38;;;;;;;;;;;;;;;;;;6222737;23;19927;-89
2023/04/15 18:47:13;;;;;;;;;;;;;;;;;;6198367;23;19921;-89
2023/04/15 18:49:43;;;;;;;;;;;;;;;;;;6198868;23;20377;-88
2023/04/15 18:52:10;;;;;;;;;;;;;;;;;;6197214;23;19919;-86
2023/04/15 18:54:40;;;;;;;;;;;;;;;;;;6198404;23;19926;-89
2023/04/15 18:57:10;;;;;;;;;;;;;;;;;;6199737;23;19927;-86
2023/04/15 18:59:41;;;;;;;;;;;;;;;;;;6201072;23;19931;-87
2023/04/15 19:02:10;;;;;;;;;;;;;;;;;;6230609;23;19926;-90
2023/04/15 19:04:40;;;;;;;;;;;;;;;;;;6201653;23;19923;-90
2023/04/15 19:07:08;;;;;;;;;;;;;;;;;;6196997;23;20366;-88
2023/04/15 19:09:36;;;;;;;;;;;;;;;;;;6195680;23;19926;-87
2023/04/15 19:12:03;;;;;;;;;;;;;;;;;;6196867;23;20254;-89
2023/04/15 19:14:30;;;;;;;;;;;;;;;;;;6196144;23;19920;-91
2023/04/15 19:16:58;;;;;;;;;;;;;;;;;;6197518;23;19919;-89
2023/04/15 19:19:28;;;;;;;;;;;;;;;;;;6231834;23;19920;-91
2023/04/15 19:21:56;;;;;;;;;;;;;;;;;;6222434;23;19943;-90
2023/04/15 19:24:23;;;;;;;;;;;;;;;;;;6194479;23;20243;-88
2023/04/15 19:26:50;;;;;;;;;;;;;;;;;;6195916;23;19920;-88
2023/04/15 19:29:21;;;;;;;;;;;;;;;;;;6195725;23;19920;-91
2023/04/15 19:31:48;;;;;;;;;;;;;;;;;;6195532;23;19926;-88
2023/04/15 19:34:16;;;;;;;;;;;;;;;;;;6221449;23;19920;-87
2023/04/15 19:36:45;;;;;;;;;;;;;;;;;;6196498;23;19925;-88
2023/04/15 19:39:13;;;;;;;;;;;;;;;;;;6196141;23;19919;-87
2023/04/15 19:41:40;;;;;;;;;;;;;;;;;;6223588;23;20292;-88
2023/04/15 19:44:07;;;;;;;;;;;;;;;;;;6223044;23;20362;-90
2023/04/15 19:46:35;;;;;;;;;;;;;;;;;;6197899;23;19920;-88
2023/04/15 19:49:02;;;;;;;;;;;;;;;;;;6199510;23;19919;-89
2023/04/15 19:51:29;;;;;;;;;;;;;;;;;;6198570;23;20247;-88
2023/04/15 19:54:01;;;;;;;;;;;;;;;;;;6198362;23;19946;-89
2023/04/15 19:56:28;;;;;;;;;;;;;;;;;;6222598;23;19919;-91
2023/04/15 19:58:55;;;;;;;;;;;;;;;;;;6224621;23;19926;-89
2023/04/15 20:01:25;;;;;;;;;;;;;;;;;;6196636;23;19927;-88
2023/04/15 20:03:55;;;;;;;;;;;;;;;;;;6223797;23;19920;-90
2023/04/15 20:06:23;;;;;;;;;;;;;;;;;;6225133;23;19920;-90
2023/04/15 20:08:50;;;;;;;;;;;;;;;;;;6225836;23;19926;-88
2023/04/15 20:11:20;;;;;;;;;;;;;;;;;;6197097;23;19926;-89
2023/04/15 20:13:48;;;;;;;;;;;;;;;;;;6223158;23;19920;-88
2023/04/15 20:16:15;;;;;;;;;;;;;;;;;;6221311;23;19926;-88
2023/04/15 20:19:26;;;;;;;;;;;;;;;;;;6175183;23;19927;-88
2023/04/15 20:21:56;;;;;;;;;;;;;;;;;;6157948;23;19927;-90
2023/04/15 20:24:25;;;;;;;;;;;;;;;;;;6173533;23;19935;-88
2023/04/15 20:26:56;;;;;;;;;;;;;;;;;;6192124;23;20505;-89
2023/04/15 20:29:26;;;;;;;;;;;;;;;;;;6216635;23;19927;-89
2023/04/15 20:31:55;;;;;;;;;;;;;;;;;;6215658;22;20369;-84
2023/04/15 20:34:22;;;;;;;;;;;;;;;;;;6104243;23;19921;-88
2023/04/15 20:36:49;;;;;;;;;;;;;;;;;;6127134;23;20233;-88
2023/04/15 20:39:16;;;;;;;;;;;;;;;;;;6154842;23;19925;-88
2023/04/15 20:41:43;;;;;;;;;;;;;;;;;;6126410;23;19947;-90
2023/04/15 20:44:12;;;;;;;;;;;;;;;;;;6104297;23;19975;-90
2023/04/15 20:46:39;;;;;;;;;;;;;;;;;;6154693;23;19925;-90
2023/04/15 20:49:09;;;;;;;;;;;;;;;;;;6154845;23;20257;-90
2023/04/15 20:51:36;;;;;;;;;;;;;;;;;;6128032;23;19927;-89
2023/04/15 20:54:06;;;;;;;;;;;;;;;;;;6103442;23;19924;-89
2023/04/15 20:56:39;;;;;;;;;;;;;;;;;;6104436;23;19921;-89
2023/04/15 20:59:08;;;;;;;;;;;;;;;;;;6128698;23;19921;-90
2023/04/15 21:01:40;;;;;;;;;;;;;;;;;;6155944;23;20260;-89
2023/04/15 21:04:07;;;;;;;;;;;;;;;;;;6171972;23;19921;-89
2023/04/15 21:06:34;;;;;;;;;;;;;;;;;;6128409;23;19925;-89
2023/04/15 21:09:01;;;;;;;;;;;;;;;;;;6103563;23;19927;-90
2023/04/15 21:11:33;;;;;;;;;;;;;;;;;;6126441;23;19944;-89
2023/04/15 21:14:01;;;;;;;;;;;;;;;;;;6128263;23;19921;-90
2023/04/15 21:16:28;;;;;;;;;;;;;;;;;;6138018;23;19920;-89
2023/04/15 21:18:59;;;;;;;;;;;;;;;;;;6154855;23;19944;-89
2023/04/15 21:21:26;;;;;;;;;;;;;;;;;;6128183;23;19944;-90
2023/04/15 21:23:55;;;;;;;;;;;;;;;;;;6150816;23;19932;-90